METAR Data
IDs: Format: Raw Decoded Include TAF

Data at: 2053 UTC 19 May 2019

PANA 191856Z AUTO 36008KT 10SM CLR 11/05 A2974 RMK AO2 SLP069 T01060050 PWINO $
PANA 191756Z AUTO 36007KT 10SM CLR 09/06 A2975 RMK AO2 SLP072 T00890056 10089 20033 56004 PWINO $
PANA 191556Z AUTO 32004KT 10SM SCT085 06/05 A2975 RMK AO2 SLP074 T00560050 PWINO $
PANA 191456Z AUTO 32003KT 10SM FEW045 04/04 A2976 RMK AO2 SLP076 T00440039 58010 PWINO $
PANA 191356Z AUTO 33003KT 10SM CLR 04/03 A2977 RMK AO2 SLP080 T00440033 PWINO $
PANA 191256Z AUTO 32005KT 10SM FEW044 BKN055 OVC070 05/04 A2978 RMK AO2 SLP084 T00500039 PWINO $
PANA 191156Z AUTO 33003KT 10SM CLR 03/03 A2979 RMK AO2 SLP086 T00330028 10100 20033 58001 PWINO $
PANA 191056Z AUTO 00000KT 10SM BKN060 04/04 A2979 RMK AO2 SLP089 T00440039 PWINO $
PANA 190956Z AUTO 29004KT 10SM CLR 06/04 A2979 RMK AO2 SLP087 T00560044 PWINO $
PANA 190856Z AUTO 36004KT 10SM OVC095 06/03 A2979 RMK AO2 SLP087 T00610033 401170044 53002 PWINO $
PANA 190756Z AUTO 33003KT 10SM SCT090 08/04 A2979 RMK AO2 SLP087 T00780039 PWINO $
PANA 190656Z AUTO 33006KT 10SM SCT060 OVC080 09/03 A2978 RMK AO2 SLP084 T00940033 PWINO $
PANA 190556Z AUTO 31003KT 10SM SCT044 BKN075 OVC110 10/03 A2978 RMK AO2 SLP084 T01000033 10117 20100 55001 PWINO $
PANA 190356Z AUTO 28006KT 10SM BKN065 11/03 A2978 RMK AO2 SLP083 T01060033
PANA 190256Z AUTO VRB05KT 10SM SCT032 BKN065 OVC080 11/03 A2978 RMK AO2 SLP085 T01060033 55002 PWINO $
PANA 190156Z AUTO VRB06KT 10SM FEW030 BKN075 11/03 A2978 RMK AO2 SLP085 T01110033 PWINO
PANA 190056Z AUTO VRB05KT 10SM CLR 11/03 A2979 RMK AO2 SLP087 T01110028 PWINO
PANA 182356Z AUTO VRB03KT 9SM CLR 10/03 A2979 RMK AO2 SLP087 T01000033 10106 20061 58001 PWINO
PANA 182256Z AUTO 23007KT 10SM FEW027 09/03 A2980 RMK AO2 SLP089 T00940028 PWINO
PANA 182156Z AUTO 19006KT 10SM BKN025 09/03 A2979 RMK AO2 SLP088 T00890028 PWINO
PANA 182056Z AUTO 21007KT 190V250 10SM OVC023 08/03 A2979 RMK AO2 SLP088 T00830028 51007 PWINO
PANA 181956Z AUTO 17005KT 10SM OVC019 07/03 A2979 RMK AO2 SLP086 T00720028 PWINO
PANA 181856Z AUTO 18007KT 10SM OVC019 07/03 A2978 RMK AO2 SLP084 T00670028 PWINO
PANA 181756Z AUTO 16006KT 10SM OVC017 06/02 A2977 RMK AO2 SLP081 T00610022 10061 20044 53010 PWINO
PANA 181656Z AUTO 17007KT 10SM OVC017 06/02 A2976 RMK AO2 SLP076 T00560022 PWINO
PANA 181615Z AUTO 18007KT 10SM BKN015 OVC020 05/02 A2975 RMK AO2 PWINO
PANA 181606Z AUTO 19009KT 10SM OVC013 05/03 A2975 RMK AO2 PWINO
PANA 181556Z AUTO 20006KT 10SM OVC016 05/03 A2975 RMK AO2 SLP074 T00500028 PWINO
PANA 181533Z AUTO 18007KT 10SM OVC016 05/02 A2975 RMK AO2 PWINO
PANA 181456Z AUTO 19006KT 10SM OVC014 05/03 A2974 RMK AO2 SLP070 T00500028 51013 PWINO
PANA 181256Z AUTO 19008KT 10SM OVC012 04/03 A2972 RMK AO2 SLP063 T00440028 PWINO
PANA 181056Z AUTO 19010KT 10SM OVC010 04/03 A2969 RMK AO2 SLP053 T00440028 PWINO
PANA 180929Z AUTO 19009KT 10SM BKN012 04/03 A2967 RMK AO2 PWINO
PANA 180856Z AUTO 19010KT 10SM FEW012 04/03 A2966 RMK AO2 SLP043 T00440028 401110044 53018 PWINO